CheckWX is a tool to help pilots better visualize weather data.  It is not intended as a substitute for an official pre-flight weather briefing.

04:12:36 UTC

SKBQ METAR
Ernesto Cortissoz International Airport
Barranquilla, Colombia
Current

13 mins ago

SKBQ 170400Z 01013KT 9999 FEW015 26/23 A2974 NOSIG
Observed
Feb-17 @ 04:00 UTC
Wind
  • 010° at 13 KTS
Visibility
10,000+ meters
Flight Rules
VFR
Cloud Levels
  • Few at 1,500' AGL
Temperature
26°C / 79°F
Dewpoint
23°C / 73°F
Humidity
84%
Altimeter
29.74" Hg
Pressure
1007.12 hPa
Previous

1 hour ago

SKBQ 170300Z 01014G24KT 340V040 9999 FEW015 26/23 A2974 NOSIG
Observed
Feb-17 @ 03:00 UTC
Wind
  • 010° at 14 KTS
  • Gusting to 24 KTS
Visibility
10,000+ meters
Flight Rules
VFR
Cloud Levels
  • Few at 1,500' AGL
Temperature
26°C / 79°F
Dewpoint
23°C / 73°F
Humidity
84%
Altimeter
29.74" Hg
Pressure
1007.12 hPa
Previous

2 hours ago

SKBQ 170200Z 01015KT 9999 FEW015 26/22 A2973 NOSIG
Observed
Feb-17 @ 02:00 UTC
Wind
  • 010° at 15 KTS
Visibility
10,000+ meters
Flight Rules
VFR
Cloud Levels
  • Few at 1,500' AGL
Temperature
26°C / 79°F
Dewpoint
22°C / 72°F
Humidity
79%
Altimeter
29.73" Hg
Pressure
1006.82 hPa